Zim Luanda — 9HA2029 — position and weather

sailwx.info

Track history (hours):
 
Tides and Currents Weather Stations Pressure Air Temp Water Temp Dewpoint Dewpoint Depression Visibility Wind Speed Wind Dir Waves Ship Positions

Zim Luanda

Last reported at 2015-Jul-01 02:15 UTC. Time now 2015-Jul-05 07:44 UTC.
Position N 36°42' W 010°31'.

Length 260 m; draft 11.5 m.

Type: Ship (hazmat cat A). MMSI: 249830000.

Date/timePositionNaut miles runAvg speedWind from/ knotsBaromVisibWave heightAir tempDewpointWater temp
2015-Jul-01 02:15N 36°42' W 010°31'1314.6
2015-Jul-01 01:21N 36°38' W 010°15'1214.6
2015-Jul-01 00:33N 36°33' W 010°02'1514.6
2015-Jun-30 23:32N 36°27' W 009°45'1514.4
2015-Jun-30 22:28N 36°20' W 009°28'1314.3
2015-Jun-30 21:34N 36°14' W 009°14'1414.2
2015-Jun-30 20:33N 36°09' W 008°57'1414.1
2015-Jun-30 19:33N 36°02' W 008°42'1413.7
2015-Jun-30 18:33N 35°60' W 008°25'1414.0
2015-Jun-30 17:33N 35°59' W 008°08'1414.0
2015-Jun-30 16:33N 35°59' W 007°51'1514.6
2015-Jun-30 15:33N 35°59' W 007°33'1814.7
2015-Jun-30 14:21N 35°58' W 007°11'1314.7
2015-Jun-30 13:27N 35°58' W 006°54'4214.5
2015-Jun-30 10:33N 35°58' W 006°03'2115.5
2015-Jun-30 09:11N 35°58' W 005°36'913.9
2015-Jun-30 08:32N 35°60' W 005°26'1313.1
2015-Jun-30 07:32N 36°02' W 005°10'11913.2
2015-Jun-29 22:33N 36°21' W 002°45'1514.1
2015-Jun-29 21:31N 36°24' W 002°27'1414.3
2015-Jun-29 20:33N 36°27' W 002°10'1514.3
2015-Jun-29 19:30N 36°36' W 001°56'1414.4
2015-Jun-29 18:30N 36°46' W 001°42'3014.4
2015-Jun-29 16:23N 37°06' W 001°14'1214.4
2015-Jun-29 15:32N 37°14' W 001°02'1414.6
2015-Jun-29 14:33N 37°23' W 000°49'1514.5
2015-Jun-29 13:33N 37°33' W 000°35'1414.2
2015-Jun-29 12:34N 37°45' W 000°24'1414.2
2015-Jun-29 11:33N 37°57' W 000°15'1414.2
2015-Jun-29 10:34N 38°08' W 000°05'1414.2
2015-Jun-29 09:33N 38°21' E 000°05'1414.1
2015-Jun-29 08:33N 38°32' E 000°15'1413.9
2015-Jun-29 07:33N 38°45' E 000°23'1613.8
2015-Jun-29 06:24N 38°58' E 000°13'3014.0
2015-Jun-29 04:17N 39°21' W 000°12'810.6
2015-Jun-29 03:32N 39°27' W 000°19'0 0.3
2015-Jun-29 02:32N 39°27' W 000°19'0 0.0
2015-Jun-29 01:26N 39°27' W 000°19'0 0.0
2015-Jun-29 00:32N 39°27' W 000°19'0 0.0
2015-Jun-28 23:32N 39°27' W 000°19'0 0.0
2015-Jun-28 22:32N 39°27' W 000°19'0 0.0
2015-Jun-28 21:29N 39°27' W 000°19'0 0.0
2015-Jun-28 20:26N 39°27' W 000°19'0 0.0
2015-Jun-28 19:32N 39°27' W 000°19'0 0.0
2015-Jun-28 18:32N 39°27' W 000°19'0 0.0
2015-Jun-28 17:32N 39°27' W 000°19'0 0.0
2015-Jun-28 16:32N 39°27' W 000°19'0 0.0
2015-Jun-28 15:33N 39°27' W 000°19'6 5.8
2015-Jun-28 14:33N 39°25' W 000°12'9 4.6
2015-Jun-28 12:33N 39°29' W 000°01'1111.4
2015-Jun-28 11:33N 39°39' E 000°05'1111.5
2015-Jun-28 10:33N 39°49' E 000°12'1211.5
2015-Jun-28 09:33N 39°59' E 000°20'1211.8
2015-Jun-28 08:33N 40°08' E 000°29'1211.6
2015-Jun-28 07:33N 40°17' E 000°39'1211.5
2015-Jun-28 06:33N 40°27' E 000°48'1111.4
2015-Jun-28 05:33N 40°36' E 000°57'1111.2
2015-Jun-28 04:33N 40°46' E 001°03'1211.7
2015-Jun-28 03:33N 40°57' E 001°09'9 9.0
2015-Jun-28 02:33N 41°05' E 001°13'0 0.2
2015-Jun-28 01:32N 41°06' E 001°13'0 0.0
2015-Jun-28 00:26N 41°06' E 001°13'0 0.0
2015-Jun-27 23:32N 41°06' E 001°13'0 0.0
2015-Jun-27 22:32N 41°06' E 001°13'0 0.0
2015-Jun-27 21:32N 41°06' E 001°13'0 0.0
2015-Jun-27 20:32N 41°06' E 001°13'0 0.0
2015-Jun-27 19:20N 41°06' E 001°13'0 0.0
2015-Jun-27 18:26N 41°06' E 001°13'0 0.0
2015-Jun-27 17:21N 41°06' E 001°13'2 2.5
2015-Jun-27 16:32N 41°03' E 001°13'1010.4
2015-Jun-27 15:33N 41°03' E 001°26'1312.7
2015-Jun-27 14:33N 41°03' E 001°43'1312.3
2015-Jun-27 13:30N 41°04' E 001°60'18 9.1
2015-Jun-27 11:29N 41°21' E 002°10'0 0.0
2015-Jun-27 10:23N 41°21' E 002°10'0 0.0
2015-Jun-27 09:32N 41°21' E 002°10'0 0.0
2015-Jun-27 05:29N 41°21' E 002°10'1 1.0
2015-Jun-27 04:33N 41°20' E 002°10'5 4.7
2015-Jun-27 03:33N 41°17' E 002°14'1211.5
2015-Jun-27 02:33N 41°22' E 002°28'1313.1
2015-Jun-27 01:33N 41°27' E 002°44'1313.2
2015-Jun-27 00:33N 41°34' E 002°60'1313.2
2015-Jun-26 23:33N 41°39' E 003°16'1313.2
2015-Jun-26 22:33N 41°45' E 003°32'2013.5
2015-Jun-26 21:05N 41°55' E 003°55'713.3
2015-Jun-26 20:33N 41°58' E 004°03'1313.3
2015-Jun-26 19:33N 42°03' E 004°20'1313.2
2015-Jun-26 18:33N 42°09' E 004°35'1313.1
2015-Jun-26 17:33N 42°15' E 004°51'1313.1
2015-Jun-26 16:33N 42°21' E 005°07'1313.2
2015-Jun-26 15:33N 42°27' E 005°23'1413.1
2015-Jun-26 14:31N 42°33' E 005°40'1313.3
2015-Jun-26 13:33N 42°39' E 005°55'1913.2
2015-Jun-26 12:05N 42°47' E 006°19'3812.9
2015-Jun-26 09:11N 43°09' E 007°01'913.1
2015-Jun-26 08:31N 43°14' E 007°11'1313.5
2015-Jun-26 07:33N 43°21' E 007°25'1413.6
2015-Jun-26 06:33N 43°30' E 007°40'1413.9
2015-Jun-26 05:33N 43°38' E 007°55'1413.9
2015-Jun-26 04:34N 43°47' E 008°10'1413.5
2015-Jun-26 03:34N 43°56' E 008°24'1313.5
2015-Jun-26 02:34N 44°05' E 008°38'1313.3
2015-Jun-26 01:34N 44°15' E 008°50'10 9.7
2015-Jun-26 00:33N 44°24' E 008°56'2 1.6
2015-Jun-25 23:33N 44°24' E 008°54'0 0.0
2015-Jun-25 22:33N 44°24' E 008°54'0 0.0
2015-Jun-25 21:33N 44°24' E 008°54'0 0.0
2015-Jun-25 20:33N 44°24' E 008°54'0 0.0
2015-Jun-25 19:33N 44°24' E 008°54'0 0.0
2015-Jun-25 18:33N 44°24' E 008°54'0 0.0
2015-Jun-25 17:33N 44°24' E 008°54'0 0.0
2015-Jun-25 16:33N 44°24' E 008°54'0 0.0
2015-Jun-25 15:33N 44°24' E 008°54'0 0.0
2015-Jun-25 14:33N 44°24' E 008°54'0 0.0
2015-Jun-25 13:33N 44°24' E 008°54'0 0.0
2015-Jun-25 12:33N 44°24' E 008°54'0 0.0
2015-Jun-25 11:33N 44°24' E 008°54'0 0.0
2015-Jun-25 10:33N 44°24' E 008°54'4 3.6
2015-Jun-25 09:34N 44°22' E 008°58'4 3.9
2015-Jun-25 08:33N 44°19' E 009°00'5 5.3
2015-Jun-25 07:33N 44°14' E 009°05'3 2.8
2015-Jun-25 06:33N 44°12' E 009°08'1111.4
2015-Jun-25 05:33N 44°03' E 009°17'1211.8
2015-Jun-25 04:34N 43°54' E 009°28'1212.5
2015-Jun-25 03:34N 43°44' E 009°38'1212.2
2015-Jun-25 02:33N 43°35' E 009°48'1111.1
2015-Jun-25 01:34N 43°30' E 010°02'1111.0
2015-Jun-25 00:33N 43°32' E 010°17'2 2.1
2015-Jun-24 23:28N 43°34' E 010°18'0 0.0
2015-Jun-24 22:31N 43°34' E 010°18'0 0.0
2015-Jun-24 21:31N 43°34' E 010°18'0 0.0
2015-Jun-24 20:31N 43°34' E 010°18'0 0.0
2015-Jun-24 19:31N 43°34' E 010°18'0 0.0
2015-Jun-24 18:31N 43°34' E 010°18'0 0.0
2015-Jun-24 17:31N 43°34' E 010°18'0 0.0
2015-Jun-24 16:31N 43°34' E 010°18'0 0.0
2015-Jun-24 15:31N 43°34' E 010°18'0 0.0
2015-Jun-24 14:31N 43°34' E 010°18'0 0.0
2015-Jun-24 13:28N 43°34' E 010°18'0 0.0
2015-Jun-24 12:25N 43°34' E 010°18'0 0.0
2015-Jun-24 11:31N 43°34' E 010°18'0 0.0
2015-Jun-24 10:31N 43°34' E 010°18'0 0.0
2015-Jun-24 09:31N 43°34' E 010°18'0 0.0
2015-Jun-24 08:31N 43°34' E 010°18'0 0.0
2015-Jun-24 07:31N 43°34' E 010°18'0 0.0
2015-Jun-24 06:31N 43°34' E 010°18'0 0.0
2015-Jun-24 05:31N 43°34' E 010°18'3 3.2
2015-Jun-24 04:33N 43°32' E 010°16'4 4.0
2015-Jun-24 03:33N 43°28' E 010°13'1313.5
2015-Jun-24 02:34N 43°15' E 010°10'1515.5
2015-Jun-24 01:34N 42°60' E 010°06'3115.3
2015-Jun-23 23:32N 42°31' E 010°19'1616.8
2015-Jun-23 22:34N 42°19' E 010°34'6016.5
2015-Jun-23 18:54N 41°36' E 011°31'61814.3
2015-Jun-21 23:33N 37°03' E 023°28'1817.5
2015-Jun-21 22:32N 37°19' E 023°36'1717.0
2015-Jun-21 21:33N 37°35' E 023°41'1616.5
2015-Jun-21 20:33N 37°51' E 023°36'6 5.5
2015-Jun-21 19:29N 37°57' E 023°35'0 0.0
2015-Jun-21 18:29N 37°57' E 023°35'0 0.0
2015-Jun-21 17:29N 37°57' E 023°35'0 0.0
2015-Jun-21 16:29N 37°57' E 023°35'0 0.0
2015-Jun-21 15:32N 37°57' E 023°35'0 0.0
2015-Jun-21 14:29N 37°57' E 023°35'0 0.0
2015-Jun-21 13:32N 37°57' E 023°35'0 0.0
2015-Jun-21 12:32N 37°57' E 023°35'0 0.0
2015-Jun-21 11:29N 37°57' E 023°35'0 0.0
2015-Jun-21 10:32N 37°57' E 023°35'0 0.0
2015-Jun-21 09:32N 37°57' E 023°35'0 0.0
2015-Jun-21 08:32N 37°57' E 023°35'0 0.0
2015-Jun-21 07:32N 37°57' E 023°35'0 0.0
2015-Jun-21 06:32N 37°57' E 023°35'1 0.6
2015-Jun-21 05:34N 37°57' E 023°36'3 3.3
2015-Jun-21 04:33N 37°54' E 023°36'1 0.6
2015-Jun-21 03:34N 37°53' E 023°36'2 2.2
2015-Jun-21 02:34N 37°52' E 023°38'  
Track history (hours):
 
Tides and Currents Weather Stations Pressure Air Temp Water Temp Dewpoint Dewpoint Depression Visibility Wind Speed Wind Dir Waves Ship Positions

Zim Luanda

Last reported at 2015-Jul-01 02:15 UTC. Time now 2015-Jul-05 07:44 UTC.
Position N 36°42' W 010°31'.

Length 260 m; draft 11.5 m.

Type: Ship (hazmat cat A). MMSI: 249830000.

Date/timePositionNaut miles runAvg speedWind from/ knotsBaromVisibWave heightAir tempDewpointWater temp
2015-Jul-01 02:15N 36°42' W 010°31'1314.6
2015-Jul-01 01:21N 36°38' W 010°15'1214.6
2015-Jul-01 00:33N 36°33' W 010°02'1514.6
2015-Jun-30 23:32N 36°27' W 009°45'1514.4
2015-Jun-30 22:28N 36°20' W 009°28'1314.3
2015-Jun-30 21:34N 36°14' W 009°14'1414.2
2015-Jun-30 20:33N 36°09' W 008°57'1414.1
2015-Jun-30 19:33N 36°02' W 008°42'1413.7
2015-Jun-30 18:33N 35°60' W 008°25'1414.0
2015-Jun-30 17:33N 35°59' W 008°08'1414.0
2015-Jun-30 16:33N 35°59' W 007°51'1514.6
2015-Jun-30 15:33N 35°59' W 007°33'1814.7
2015-Jun-30 14:21N 35°58' W 007°11'1314.7
2015-Jun-30 13:27N 35°58' W 006°54'4214.5
2015-Jun-30 10:33N 35°58' W 006°03'2115.5
2015-Jun-30 09:11N 35°58' W 005°36'913.9
2015-Jun-30 08:32N 35°60' W 005°26'1313.1
2015-Jun-30 07:32N 36°02' W 005°10'11913.2
2015-Jun-29 22:33N 36°21' W 002°45'1514.1
2015-Jun-29 21:31N 36°24' W 002°27'1414.3
2015-Jun-29 20:33N 36°27' W 002°10'1514.3
2015-Jun-29 19:30N 36°36' W 001°56'1414.4
2015-Jun-29 18:30N 36°46' W 001°42'3014.4
2015-Jun-29 16:23N 37°06' W 001°14'1214.4
2015-Jun-29 15:32N 37°14' W 001°02'1414.6
2015-Jun-29 14:33N 37°23' W 000°49'1514.5
2015-Jun-29 13:33N 37°33' W 000°35'1414.2
2015-Jun-29 12:34N 37°45' W 000°24'1414.2
2015-Jun-29 11:33N 37°57' W 000°15'1414.2
2015-Jun-29 10:34N 38°08' W 000°05'1414.2
2015-Jun-29 09:33N 38°21' E 000°05'1414.1
2015-Jun-29 08:33N 38°32' E 000°15'1413.9
2015-Jun-29 07:33N 38°45' E 000°23'1613.8
2015-Jun-29 06:24N 38°58' E 000°13'3014.0
2015-Jun-29 04:17N 39°21' W 000°12'810.6
2015-Jun-29 03:32N 39°27' W 000°19'0 0.3
2015-Jun-29 02:32N 39°27' W 000°19'0 0.0
2015-Jun-29 01:26N 39°27' W 000°19'0 0.0
2015-Jun-29 00:32N 39°27' W 000°19'0 0.0
2015-Jun-28 23:32N 39°27' W 000°19'0 0.0
2015-Jun-28 22:32N 39°27' W 000°19'0 0.0
2015-Jun-28 21:29N 39°27' W 000°19'0 0.0
2015-Jun-28 20:26N 39°27' W 000°19'0 0.0
2015-Jun-28 19:32N 39°27' W 000°19'0 0.0
2015-Jun-28 18:32N 39°27' W 000°19'0 0.0
2015-Jun-28 17:32N 39°27' W 000°19'0 0.0
2015-Jun-28 16:32N 39°27' W 000°19'0 0.0
2015-Jun-28 15:33N 39°27' W 000°19'6 5.8
2015-Jun-28 14:33N 39°25' W 000°12'9 4.6
2015-Jun-28 12:33N 39°29' W 000°01'1111.4
2015-Jun-28 11:33N 39°39' E 000°05'1111.5
2015-Jun-28 10:33N 39°49' E 000°12'1211.5
2015-Jun-28 09:33N 39°59' E 000°20'1211.8
2015-Jun-28 08:33N 40°08' E 000°29'1211.6
2015-Jun-28 07:33N 40°17' E 000°39'1211.5
2015-Jun-28 06:33N 40°27' E 000°48'1111.4
2015-Jun-28 05:33N 40°36' E 000°57'1111.2
2015-Jun-28 04:33N 40°46' E 001°03'1211.7
2015-Jun-28 03:33N 40°57' E 001°09'9 9.0
2015-Jun-28 02:33N 41°05' E 001°13'0 0.2
2015-Jun-28 01:32N 41°06' E 001°13'0 0.0
2015-Jun-28 00:26N 41°06' E 001°13'0 0.0
2015-Jun-27 23:32N 41°06' E 001°13'0 0.0
2015-Jun-27 22:32N 41°06' E 001°13'0 0.0
2015-Jun-27 21:32N 41°06' E 001°13'0 0.0
2015-Jun-27 20:32N 41°06' E 001°13'0 0.0
2015-Jun-27 19:20N 41°06' E 001°13'0 0.0
2015-Jun-27 18:26N 41°06' E 001°13'0 0.0
2015-Jun-27 17:21N 41°06' E 001°13'2 2.5
2015-Jun-27 16:32N 41°03' E 001°13'1010.4
2015-Jun-27 15:33N 41°03' E 001°26'1312.7
2015-Jun-27 14:33N 41°03' E 001°43'1312.3
2015-Jun-27 13:30N 41°04' E 001°60'18 9.1
2015-Jun-27 11:29N 41°21' E 002°10'0 0.0
2015-Jun-27 10:23N 41°21' E 002°10'0 0.0
2015-Jun-27 09:32N 41°21' E 002°10'0 0.0
2015-Jun-27 05:29N 41°21' E 002°10'1 1.0
2015-Jun-27 04:33N 41°20' E 002°10'5 4.7
2015-Jun-27 03:33N 41°17' E 002°14'1211.5
2015-Jun-27 02:33N 41°22' E 002°28'1313.1
2015-Jun-27 01:33N 41°27' E 002°44'1313.2
2015-Jun-27 00:33N 41°34' E 002°60'1313.2
2015-Jun-26 23:33N 41°39' E 003°16'1313.2
2015-Jun-26 22:33N 41°45' E 003°32'2013.5
2015-Jun-26 21:05N 41°55' E 003°55'713.3
2015-Jun-26 20:33N 41°58' E 004°03'1313.3
2015-Jun-26 19:33N 42°03' E 004°20'1313.2
2015-Jun-26 18:33N 42°09' E 004°35'1313.1
2015-Jun-26 17:33N 42°15' E 004°51'1313.1
2015-Jun-26 16:33N 42°21' E 005°07'1313.2
2015-Jun-26 15:33N 42°27' E 005°23'1413.1
2015-Jun-26 14:31N 42°33' E 005°40'1313.3
2015-Jun-26 13:33N 42°39' E 005°55'1913.2
2015-Jun-26 12:05N 42°47' E 006°19'3812.9
2015-Jun-26 09:11N 43°09' E 007°01'913.1
2015-Jun-26 08:31N 43°14' E 007°11'1313.5
2015-Jun-26 07:33N 43°21' E 007°25'1413.6
2015-Jun-26 06:33N 43°30' E 007°40'1413.9
2015-Jun-26 05:33N 43°38' E 007°55'1413.9
2015-Jun-26 04:34N 43°47' E 008°10'1413.5
2015-Jun-26 03:34N 43°56' E 008°24'1313.5
2015-Jun-26 02:34N 44°05' E 008°38'1313.3
2015-Jun-26 01:34N 44°15' E 008°50'10 9.7
2015-Jun-26 00:33N 44°24' E 008°56'2 1.6
2015-Jun-25 23:33N 44°24' E 008°54'0 0.0
2015-Jun-25 22:33N 44°24' E 008°54'0 0.0
2015-Jun-25 21:33N 44°24' E 008°54'0 0.0
2015-Jun-25 20:33N 44°24' E 008°54'0 0.0
2015-Jun-25 19:33N 44°24' E 008°54'0 0.0
2015-Jun-25 18:33N 44°24' E 008°54'0 0.0
2015-Jun-25 17:33N 44°24' E 008°54'0 0.0
2015-Jun-25 16:33N 44°24' E 008°54'0 0.0
2015-Jun-25 15:33N 44°24' E 008°54'0 0.0
2015-Jun-25 14:33N 44°24' E 008°54'0 0.0
2015-Jun-25 13:33N 44°24' E 008°54'0 0.0
2015-Jun-25 12:33N 44°24' E 008°54'0 0.0
2015-Jun-25 11:33N 44°24' E 008°54'0 0.0
2015-Jun-25 10:33N 44°24' E 008°54'4 3.6
2015-Jun-25 09:34N 44°22' E 008°58'4 3.9
2015-Jun-25 08:33N 44°19' E 009°00'5 5.3
2015-Jun-25 07:33N 44°14' E 009°05'3 2.8
2015-Jun-25 06:33N 44°12' E 009°08'1111.4
2015-Jun-25 05:33N 44°03' E 009°17'1211.8
2015-Jun-25 04:34N 43°54' E 009°28'1212.5
2015-Jun-25 03:34N 43°44' E 009°38'1212.2
2015-Jun-25 02:33N 43°35' E 009°48'1111.1
2015-Jun-25 01:34N 43°30' E 010°02'1111.0
2015-Jun-25 00:33N 43°32' E 010°17'2 2.1
2015-Jun-24 23:28N 43°34' E 010°18'0 0.0
2015-Jun-24 22:31N 43°34' E 010°18'0 0.0
2015-Jun-24 21:31N 43°34' E 010°18'0 0.0
2015-Jun-24 20:31N 43°34' E 010°18'0 0.0
2015-Jun-24 19:31N 43°34' E 010°18'0 0.0
2015-Jun-24 18:31N 43°34' E 010°18'0 0.0
2015-Jun-24 17:31N 43°34' E 010°18'0 0.0
2015-Jun-24 16:31N 43°34' E 010°18'0 0.0
2015-Jun-24 15:31N 43°34' E 010°18'0 0.0
2015-Jun-24 14:31N 43°34' E 010°18'0 0.0
2015-Jun-24 13:28N 43°34' E 010°18'0 0.0
2015-Jun-24 12:25N 43°34' E 010°18'0 0.0
2015-Jun-24 11:31N 43°34' E 010°18'0 0.0
2015-Jun-24 10:31N 43°34' E 010°18'0 0.0
2015-Jun-24 09:31N 43°34' E 010°18'0 0.0
2015-Jun-24 08:31N 43°34' E 010°18'0 0.0
2015-Jun-24 07:31N 43°34' E 010°18'0 0.0
2015-Jun-24 06:31N 43°34' E 010°18'0 0.0
2015-Jun-24 05:31N 43°34' E 010°18'3 3.2
2015-Jun-24 04:33N 43°32' E 010°16'4 4.0
2015-Jun-24 03:33N 43°28' E 010°13'1313.5
2015-Jun-24 02:34N 43°15' E 010°10'1515.5
2015-Jun-24 01:34N 42°60' E 010°06'3115.3
2015-Jun-23 23:32N 42°31' E 010°19'1616.8
2015-Jun-23 22:34N 42°19' E 010°34'6016.5
2015-Jun-23 18:54N 41°36' E 011°31'61814.3
2015-Jun-21 23:33N 37°03' E 023°28'1817.5
2015-Jun-21 22:32N 37°19' E 023°36'1717.0
2015-Jun-21 21:33N 37°35' E 023°41'1616.5
2015-Jun-21 20:33N 37°51' E 023°36'6 5.5
2015-Jun-21 19:29N 37°57' E 023°35'0 0.0
2015-Jun-21 18:29N 37°57' E 023°35'0 0.0
2015-Jun-21 17:29N 37°57' E 023°35'0 0.0
2015-Jun-21 16:29N 37°57' E 023°35'0 0.0
2015-Jun-21 15:32N 37°57' E 023°35'0 0.0
2015-Jun-21 14:29N 37°57' E 023°35'0 0.0
2015-Jun-21 13:32N 37°57' E 023°35'0 0.0
2015-Jun-21 12:32N 37°57' E 023°35'0 0.0
2015-Jun-21 11:29N 37°57' E 023°35'0 0.0
2015-Jun-21 10:32N 37°57' E 023°35'0 0.0
2015-Jun-21 09:32N 37°57' E 023°35'0 0.0
2015-Jun-21 08:32N 37°57' E 023°35'0 0.0
2015-Jun-21 07:32N 37°57' E 023°35'0 0.0
2015-Jun-21 06:32N 37°57' E 023°35'1 0.6
2015-Jun-21 05:34N 37°57' E 023°36'3 3.3
2015-Jun-21 04:33N 37°54' E 023°36'1 0.6
2015-Jun-21 03:34N 37°53' E 023°36'2 2.2
2015-Jun-21 02:34N 37°52' E 023°38'  

Dump ship's entire track history